.
WxDataArchive / Data Records for 2006-09-12
2006-09-11 September 2006 2006-09-13

Data Records for Tuesday, 12 September 2006

Time	Temp	Chill	HIndex	Humid	Dewpt	 Wind 	HiWind	WindDir	Rain 	Barom 
-----	----	-----	------	-----	-----	------	------	-------	-----	----- 
00:00	63.7	63.7	63.7	95	62.2	1	2	68	0.00	30.024 
00:05	63.7	63.7	63.7	95	62.2	1	2	68	0.00	30.024 
00:10	63.7	63.7	63.7	95	62.2	1	2	68	0.00	30.024 
00:15	63.7	63.7	63.7	95	62.2	0	3	68	0.00	30.017 
00:20	63.7	63.7	63.7	95	62.2	1	2	68	0.00	30.017 
00:25	63.7	63.7	63.7	95	62.2	0	2	68	0.00	30.017 
00:30	63.7	63.7	63.7	95	62.2	0	1	68	0.00	30.009 
00:35	63.7	63.7	63.7	95	62.2	0	1	68	0.00	30.009 
00:40	63.7	63.7	63.7	95	62.2	0	1	68	0.00	30.009 
00:45	63.5	63.5	63.5	95	62.0	0	1	68	0.00	30.011 
00:50	63.5	63.5	63.5	95	62.0	0	1	68	0.00	30.011 
00:55	63.5	63.5	63.5	95	62.0	0	2	68	0.00	30.011 
01:00	63.5	63.5	63.5	95	62.0	0	1	68	0.00	30.003 
01:05	63.5	63.5	63.5	96	62.3	0	1	68	0.00	30.003 
01:10	63.5	63.5	63.5	96	62.3	0	0	---	0.00	30.003 
01:15	63.4	63.4	63.4	96	62.2	0	1	68	0.00	29.999 
01:20	63.4	63.4	63.4	96	62.2	0	1	68	0.00	29.999 
01:25	63.4	63.4	63.4	96	62.2	0	1	68	0.00	29.999 
01:30	63.4	63.4	63.4	96	62.2	0	1	68	0.00	29.993 
01:35	63.2	63.2	63.2	96	62.0	0	1	68	0.00	29.993 
01:40	63.1	63.1	63.1	96	61.9	0	0	---	0.00	29.993 
01:45	62.9	62.9	62.9	96	61.7	0	0	---	0.00	29.992 
01:50	62.7	62.7	62.7	96	61.5	0	0	---	0.00	29.992 
01:55	62.7	62.7	62.7	96	61.5	0	0	---	0.00	29.992 
02:00	62.9	62.9	62.9	96	61.7	0	1	68	0.00	29.987 
02:05	62.9	62.9	62.9	96	61.7	0	1	68	0.00	29.987 
02:10	62.9	62.9	62.9	96	61.7	0	1	68	0.00	29.987 
02:15	62.9	62.9	62.9	96	61.7	0	1	68	0.00	29.984 
02:20	62.9	62.9	62.9	96	61.7	0	1	68	0.00	29.984 
02:25	62.9	62.9	62.9	96	61.7	0	1	68	0.00	29.984 
02:30	62.9	62.9	62.9	96	61.7	0	1	68	0.00	29.985 
02:35	63.1	63.1	63.1	96	61.9	0	1	68	0.00	29.985 
02:40	63.1	63.1	63.1	96	61.9	1	2	68	0.00	29.985 
02:45	63.1	63.1	63.1	97	62.2	0	2	68	0.00	29.981 
02:50	63.1	63.1	63.1	97	62.2	0	2	68	0.00	29.981 
02:55	63.1	63.1	63.1	97	62.2	1	2	68	0.00	29.981 
03:00	62.9	62.9	62.9	97	62.0	1	2	68	0.00	29.979 
03:05	62.9	62.9	62.9	97	62.0	0	2	68	0.00	29.979 
03:10	62.9	62.9	62.9	97	62.0	0	2	68	0.00	29.979 
03:15	62.7	62.7	62.7	97	61.8	0	1	68	0.00	29.979 
03:20	62.7	62.7	62.7	97	61.8	0	0	---	0.00	29.979 
03:25	62.7	62.7	62.7	97	61.8	0	0	---	0.00	29.979 
03:30	62.7	62.7	62.7	97	61.8	0	0	---	0.00	29.979 
03:35	62.7	62.7	62.7	97	61.8	0	1	68	0.00	29.979 
03:40	62.9	62.9	62.9	97	62.0	0	0	---	0.00	29.979 
03:45	62.9	62.9	62.9	97	62.0	0	0	---	0.00	29.972 
03:50	62.9	62.9	62.9	97	62.0	0	0	---	0.00	29.972 
03:55	62.9	62.9	62.9	97	62.0	0	0	---	0.00	29.972 
04:00	62.9	62.9	62.9	97	62.0	0	0	---	0.00	29.967 
04:05	62.9	62.9	62.9	97	62.0	0	0	---	0.00	29.967 
04:10	62.9	62.9	62.9	97	62.0	0	0	---	0.00	29.967 
04:15	62.9	62.9	62.9	97	62.0	0	2	68	0.00	29.967 
04:20	62.9	62.9	62.9	97	62.0	0	1	68	0.00	29.967 
04:25	62.7	62.7	62.7	97	61.8	0	1	68	0.00	29.967 
04:30	62.6	62.6	62.6	97	61.7	0	0	---	0.00	29.966 
04:35	62.6	62.6	62.6	97	61.7	0	0	---	0.00	29.966 
04:40	62.6	62.6	62.6	97	61.7	0	0	---	0.00	29.966 
04:45	62.6	62.6	62.6	97	61.7	0	0	---	0.00	29.966 
04:50	62.6	62.6	62.6	97	61.7	0	1	68	0.00	29.966 
04:55	62.6	62.6	62.6	97	61.7	1	2	68	0.00	29.966 
05:00	62.4	62.4	62.4	97	61.5	0	1	68	0.00	29.966 
05:05	62.6	62.6	62.6	97	61.7	0	1	68	0.00	29.966 
05:10	62.6	62.6	62.6	97	61.7	0	0	---	0.00	29.966 
05:15	62.6	62.6	62.6	97	61.7	0	0	---	0.00	29.966 
05:20	62.6	62.6	62.6	97	61.7	0	0	---	0.00	29.966 
05:25	62.7	62.7	62.7	98	62.1	0	2	68	0.00	29.966 
05:30	62.7	62.7	62.7	98	62.1	0	0	---	0.00	29.957 
05:35	62.7	62.7	62.7	98	62.1	0	1	68	0.00	29.957 
05:40	62.7	62.7	62.7	98	62.1	1	2	68	0.00	29.957 
05:45	62.6	62.6	62.6	98	62.0	1	2	68	0.00	29.953 
05:50	62.7	62.7	62.7	98	62.1	0	1	68	0.00	29.953 
05:55	62.7	62.7	62.7	98	62.1	0	1	68	0.00	29.953 
06:00	62.7	62.7	62.7	98	62.1	1	2	68	0.00	29.954 
06:05	62.7	62.7	62.7	98	62.1	1	2	68	0.00	29.954 
06:10	62.7	62.7	62.7	98	62.1	0	1	68	0.00	29.954 
06:15	62.7	62.7	62.7	98	62.1	0	1	68	0.00	29.952 
06:20	62.7	62.7	62.7	98	62.1	0	1	68	0.00	29.952 
06:25	62.7	62.7	62.7	98	62.1	0	1	68	0.00	29.952 
06:30	62.7	62.7	62.7	98	62.1	0	1	68	0.00	29.949 
06:35	62.7	62.7	62.7	98	62.1	0	0	---	0.00	29.949 
06:40	62.7	62.7	62.7	98	62.1	0	0	---	0.00	29.949 
06:45	62.7	62.7	62.7	98	62.1	0	2	68	0.00	29.952 
06:50	62.7	62.7	62.7	98	62.1	0	1	68	0.00	29.952 
06:55	62.9	62.9	62.9	98	62.3	0	2	68	0.00	29.952 
07:00	62.9	62.9	62.9	98	62.3	1	3	68	0.00	29.950 
07:05	62.9	62.9	62.9	98	62.3	0	1	68	0.00	29.950 
07:10	63.1	63.1	63.1	98	62.5	0	1	68	0.00	29.950 
07:15	63.1	63.1	63.1	98	62.5	0	1	68	0.00	29.954 
07:20	63.1	63.1	63.1	98	62.5	0	1	68	0.00	29.954 
07:25	63.1	63.1	63.1	98	62.5	0	1	68	0.00	29.954 
07:30	63.2	63.2	63.2	98	62.6	0	0	---	0.00	29.952 
07:35	63.2	63.2	63.2	98	62.6	0	1	68	0.00	29.952 
07:40	63.4	63.4	63.4	98	62.8	0	1	68	0.00	29.952 
07:45	63.4	63.4	63.4	98	62.8	1	2	68	0.00	29.948 
07:50	63.5	63.5	63.5	98	62.9	0	1	68	0.00	29.948 
07:55	63.5	63.5	63.5	98	62.9	0	2	68	0.00	29.948 
08:00	63.5	63.5	63.5	98	62.9	0	2	68	0.00	29.939 
08:05	63.5	63.5	63.5	98	62.9	0	1	68	0.00	29.939 
08:10	63.5	63.5	63.5	98	62.9	0	1	68	0.00	29.939 
08:15	63.7	63.7	63.7	98	63.1	0	0	---	0.00	29.945 
08:20	63.7	63.7	63.7	98	63.1	0	0	---	0.00	29.945 
08:25	63.9	63.9	63.9	98	63.3	0	0	---	0.00	29.945 
08:30	63.9	63.9	63.9	98	63.3	0	0	---	0.00	29.951 
08:35	64.0	64.0	64.0	98	63.4	0	0	---	0.00	29.951 
08:40	64.2	64.2	64.2	98	63.6	0	0	---	0.00	29.951 
08:45	64.2	64.2	64.2	98	63.6	0	2	68	0.00	29.948 
08:50	64.2	64.2	64.2	98	63.6	0	2	68	0.00	29.948 
08:55	64.2	64.2	64.2	98	63.6	0	2	68	0.00	29.948 
09:00	64.3	64.3	64.3	98	63.7	0	1	68	0.00	29.949 
09:05	64.3	64.3	64.3	98	63.7	0	2	68	0.00	29.949 
09:10	64.5	64.5	64.5	98	63.9	0	1	68	0.00	29.949 
09:15	64.5	64.5	64.5	98	63.9	0	1	68	0.00	29.949 
09:20	64.5	64.5	64.5	98	63.9	0	1	68	0.00	29.949 
09:25	64.7	64.7	64.7	98	64.1	0	0	---	0.00	29.949 
09:30	64.7	64.7	64.7	98	64.1	0	1	68	0.00	29.945 
09:35	64.8	64.8	64.8	98	64.2	0	0	---	0.00	29.945 
09:40	65.0	65.0	65.0	98	64.4	0	1	68	0.00	29.945 
09:45	65.0	65.0	65.0	98	64.4	0	0	---	0.01	29.941 
09:50	65.0	65.0	65.0	98	64.4	0	0	---	0.00	29.941 
09:55	65.2	65.2	65.2	98	64.6	0	1	68	0.00	29.941 
10:00	65.2	65.2	65.2	98	64.6	0	1	68	0.00	29.944 
10:05	65.2	65.2	65.2	98	64.6	0	1	68	0.00	29.944 
10:10	65.2	65.2	65.2	98	64.6	0	1	68	0.01	29.944 
10:15	65.2	65.2	65.2	98	64.6	0	0	---	0.00	29.944 
10:20	65.2	65.2	65.2	98	64.6	0	2	68	0.00	29.944 
10:25	65.2	65.2	65.2	98	64.6	0	1	68	0.01	29.944 
10:30	65.2	65.2	65.2	98	64.6	0	1	68	0.01	29.943 
10:35	65.2	65.2	65.2	98	64.6	0	1	68	0.01	29.943 
10:40	65.2	65.2	65.2	98	64.6	0	1	68	0.01	29.943 
10:45	65.2	65.2	65.2	98	64.6	0	1	68	0.01	29.939 
10:50	65.3	65.3	65.3	98	64.7	0	2	68	0.02	29.939 
10:55	65.3	65.3	65.3	98	64.7	0	1	68	0.02	29.939 
11:00	65.3	65.3	65.3	98	64.7	0	1	68	0.01	29.931 
11:05	65.3	65.3	65.3	98	64.7	0	1	68	0.01	29.931 
11:10	65.3	65.3	65.3	98	64.7	0	0	---	0.01	29.931 
11:15	65.5	65.5	65.5	98	64.9	0	1	68	0.01	29.924 
11:20	65.6	65.6	65.6	98	65.0	0	0	---	0.02	29.924 
11:25	65.8	65.8	65.8	98	65.2	0	1	68	0.00	29.924 
11:30	66.0	66.0	66.0	98	65.4	0	1	68	0.01	29.907 
11:35	66.0	66.0	66.0	98	65.4	0	1	68	0.00	29.907 
11:40	66.3	66.3	66.3	98	65.7	0	0	---	0.00	29.907 
11:45	66.4	66.4	66.4	98	65.8	0	0	---	0.01	29.909 
11:50	66.8	66.8	66.8	98	66.2	0	2	68	0.00	29.909 
11:55	67.3	67.3	67.3	98	66.7	0	2	68	0.00	29.909 
12:00	67.6	67.6	67.6	98	67.0	0	1	68	0.00	29.911 
12:05	67.9	67.9	67.9	98	67.3	0	1	68	0.00	29.911 
12:10	67.8	67.8	67.8	98	67.2	0	3	68	0.00	29.911 
12:15	67.8	67.8	67.8	98	67.2	0	2	292	0.00	29.905 
12:20	67.9	67.9	67.9	98	67.3	0	1	315	0.00	29.905 
12:25	68.1	68.1	68.1	98	67.5	0	1	315	0.00	29.905 
12:30	67.9	67.9	67.9	98	67.3	0	1	315	0.00	29.903 
12:35	67.9	67.9	67.9	97	67.0	0	2	315	0.00	29.903 
12:40	67.9	67.9	67.9	97	67.0	0	1	315	0.00	29.903 
12:45	68.1	68.1	68.1	97	67.2	0	2	315	0.00	29.904 
12:50	68.1	68.1	68.1	96	66.9	0	2	315	0.00	29.904 
12:55	68.3	68.3	68.3	96	67.1	0	2	0	0.00	29.904 
13:00	68.4	68.4	68.4	95	66.9	0	3	158	0.00	29.903 
13:05	68.6	68.6	68.6	95	67.1	0	2	135	0.00	29.903 
13:10	68.6	68.6	68.6	94	66.8	0	2	135	0.00	29.903 
13:15	68.6	68.6	68.6	93	66.5	1	3	112	0.00	29.901 
13:20	68.8	68.8	68.8	92	66.4	1	3	112	0.00	29.901 
13:25	68.9	68.9	68.9	92	66.5	1	2	112	0.00	29.901 
13:30	69.3	69.3	69.3	92	66.9	1	3	112	0.00	29.902 
13:35	69.4	69.4	69.4	90	66.3	1	3	90	0.00	29.902 
13:40	69.8	69.8	69.8	90	66.7	1	3	90	0.00	29.902 
13:45	69.8	69.8	69.8	90	66.7	1	3	112	0.00	29.901 
13:50	69.8	69.8	69.8	90	66.7	1	3	112	0.00	29.901 
13:55	69.6	69.6	69.6	90	66.5	1	3	112	0.00	29.901 
14:00	69.8	69.8	69.8	90	66.7	0	1	112	0.00	29.897 
14:05	69.9	69.9	69.9	90	66.8	1	3	90	0.00	29.897 
14:10	69.9	69.9	69.9	89	66.5	1	2	112	0.00	29.897 
14:15	70.1	70.1	70.1	89	66.7	0	2	112	0.00	29.889 
14:20	70.3	70.3	70.3	89	66.9	1	3	112	0.00	29.889 
14:25	70.6	70.6	70.6	88	66.9	1	2	112	0.00	29.889 
14:30	70.9	70.9	70.9	87	66.8	1	4	135	0.00	29.878 
14:35	71.1	71.1	71.1	87	67.0	1	2	135	0.00	29.878 
14:40	71.3	71.3	71.3	87	67.2	1	2	135	0.00	29.878 
14:45	71.5	71.5	71.5	85	66.7	1	3	90	0.00	29.869 
14:50	71.8	71.8	71.8	85	67.0	0	2	90	0.00	29.869 
14:55	72.1	72.1	72.1	84	67.0	1	3	90	0.00	29.869 
15:00	72.3	72.3	72.3	83	66.8	1	2	90	0.00	29.863 
15:05	72.7	72.7	72.7	82	66.9	1	2	90	0.00	29.863 
15:10	72.8	72.8	72.8	80	66.3	1	4	112	0.00	29.863 
15:15	73.0	73.0	73.0	80	66.5	1	2	135	0.00	29.854 
15:20	72.8	72.8	72.8	81	66.6	1	3	135	0.00	29.854 
15:25	72.8	72.8	72.8	81	66.6	1	3	248	0.00	29.854 
15:30	72.7	72.7	72.7	81	66.5	0	1	248	0.00	29.851 
15:35	72.8	72.8	72.8	81	66.6	0	1	248	0.00	29.851 
15:40	72.7	72.7	72.7	81	66.5	0	2	248	0.00	29.851 
15:45	72.7	72.7	72.7	81	66.5	0	2	225	0.00	29.845 
15:50	72.3	72.3	72.3	82	66.5	0	3	135	0.00	29.845 
15:55	71.8	71.8	71.8	84	66.7	0	2	135	0.01	29.845 
16:00	71.6	71.6	71.6	86	67.2	0	1	135	0.00	29.840 
16:05	71.5	71.5	71.5	87	67.4	0	1	135	0.00	29.840 
16:10	71.5	71.5	71.5	87	67.4	0	2	135	0.00	29.840 
16:15	71.3	71.3	71.3	87	67.2	1	2	135	0.00	29.837 
16:20	71.3	71.3	71.3	87	67.2	0	1	135	0.00	29.837 
16:25	71.3	71.3	71.3	86	66.9	1	3	112	0.00	29.837 
16:30	71.3	71.3	71.3	87	67.2	0	2	112	0.00	29.835 
16:35	71.3	71.3	71.3	87	67.2	0	2	112	0.00	29.835 
16:40	71.1	71.1	71.1	86	66.7	0	1	112	0.00	29.835 
16:45	71.1	71.1	71.1	86	66.7	0	1	112	0.00	29.832 
16:50	71.1	71.1	71.1	87	67.0	0	1	112	0.00	29.832 
16:55	70.9	70.9	70.9	86	66.5	0	2	112	0.00	29.832 
17:00	70.9	70.9	70.9	86	66.5	0	0	---	0.00	29.828 
17:05	70.9	70.9	70.9	87	66.8	0	1	112	0.00	29.828 
17:10	71.1	71.1	71.1	87	67.0	0	1	112	0.00	29.828 
17:15	71.1	71.1	71.1	87	67.0	0	2	112	0.00	29.824 
17:20	70.9	70.9	70.9	87	66.8	0	2	112	0.00	29.824 
17:25	70.9	70.9	70.9	86	66.5	0	2	112	0.00	29.824 
17:30	70.9	70.9	70.9	87	66.8	0	2	112	0.00	29.821 
17:35	70.6	70.6	70.6	86	66.2	1	7	112	0.01	29.821 
17:40	70.1	70.1	70.1	86	65.7	1	2	112	0.00	29.821 
17:45	69.3	69.3	69.3	85	64.6	1	4	270	0.00	29.825 
17:50	68.8	68.8	68.8	87	64.8	0	2	225	0.00	29.825 
17:55	68.4	68.4	68.4	87	64.4	1	4	112	0.00	29.825 
18:00	68.3	68.3	68.3	87	64.3	1	3	90	0.00	29.825 
18:05	68.1	68.1	68.1	88	64.4	1	2	90	0.00	29.825 
18:10	67.9	67.9	67.9	88	64.2	2	4	112	0.00	29.825 
18:15	67.9	67.9	67.9	88	64.2	2	5	90	0.00	29.822 
18:20	67.9	67.9	67.9	89	64.5	2	5	90	0.00	29.822 
18:25	67.8	67.8	67.8	90	64.8	1	3	90	0.00	29.822 
18:30	67.8	67.8	67.8	91	65.1	0	2	90	0.00	29.828 
18:35	67.8	67.8	67.8	91	65.1	1	3	90	0.00	29.828 
18:40	67.6	67.6	67.6	92	65.2	1	4	90	0.00	29.828 
18:45	67.6	67.6	67.6	92	65.2	0	3	90	0.00	29.828 
18:50	67.6	67.6	67.6	93	65.5	0	3	90	0.02	29.828 
18:55	67.4	67.4	67.4	93	65.3	1	3	90	0.00	29.828 
19:00	67.4	67.4	67.4	93	65.3	0	3	112	0.01	29.826 
19:05	67.3	67.3	67.3	93	65.2	0	2	112	0.00	29.826 
19:10	67.1	67.1	67.1	93	65.0	0	3	90	0.06	29.826 
19:15	67.1	67.1	67.1	93	65.0	0	0	---	0.03	29.819 
19:20	67.1	67.1	67.1	94	65.3	0	1	90	0.04	29.819 
19:25	67.1	67.1	67.1	94	65.3	0	2	90	0.03	29.819 
19:30	67.1	67.1	67.1	94	65.3	0	2	90	0.01	29.812 
19:35	67.1	67.1	67.1	95	65.6	0	2	90	0.00	29.812 
19:40	66.9	66.9	66.9	95	65.4	0	1	90	0.00	29.812 
19:45	66.9	66.9	66.9	95	65.4	0	0	---	0.00	29.811 
19:50	66.8	66.8	66.8	95	65.3	0	1	90	0.00	29.811 
19:55	66.8	66.8	66.8	95	65.3	0	1	90	0.00	29.811 
20:00	66.6	66.6	66.6	95	65.1	0	1	90	0.00	29.811 
20:05	66.6	66.6	66.6	95	65.1	1	3	90	0.00	29.811 
20:10	66.6	66.6	66.6	95	65.1	1	3	112	0.00	29.811 
20:15	66.4	66.4	66.4	94	64.6	0	2	112	0.00	29.800 
20:20	66.4	66.4	66.4	94	64.6	1	2	90	0.00	29.800 
20:25	66.3	66.3	66.3	94	64.5	1	3	90	0.00	29.800 
20:30	66.3	66.3	66.3	93	64.2	0	3	90	0.00	29.794 
20:35	66.3	66.3	66.3	93	64.2	0	2	90	0.00	29.794 
20:40	66.1	66.1	66.1	94	64.3	1	2	90	0.00	29.794 
20:45	66.1	66.1	66.1	94	64.3	1	2	90	0.00	29.792 
20:50	66.1	66.1	66.1	94	64.3	1	3	90	0.00	29.792 
20:55	66.3	66.3	66.3	94	64.5	0	2	90	0.00	29.792 
21:00	66.3	66.3	66.3	94	64.5	1	2	90	0.00	29.792 
21:05	66.3	66.3	66.3	94	64.5	0	3	135	0.00	29.792 
21:10	66.3	66.3	66.3	94	64.5	0	1	135	0.00	29.792 
21:15	66.3	66.3	66.3	94	64.5	0	0	---	0.00	29.796 
21:20	66.3	66.3	66.3	94	64.5	0	0	---	0.00	29.796 
21:25	66.3	66.3	66.3	94	64.5	0	0	---	0.00	29.796 
21:30	66.3	66.3	66.3	94	64.5	0	0	---	0.00	29.810 
21:35	66.3	66.3	66.3	94	64.5	0	0	---	0.00	29.810 
21:40	66.3	66.3	66.3	94	64.5	0	0	---	0.00	29.810 
21:45	66.3	66.3	66.3	94	64.5	0	0	---	0.00	29.821 
21:50	66.3	66.3	66.3	95	64.8	0	0	---	0.00	29.821 
21:55	66.3	66.3	66.3	95	64.8	0	0	---	0.01	29.821 
22:00	66.3	66.3	66.3	95	64.8	0	0	---	0.00	29.820 
22:05	66.3	66.3	66.3	95	64.8	0	0	---	0.02	29.820 
22:10	66.3	66.3	66.3	95	64.8	0	0	---	0.01	29.820 
22:15	66.3	66.3	66.3	95	64.8	0	0	---	0.02	29.812 
22:20	66.1	66.1	66.1	95	64.6	0	0	---	0.00	29.812 
22:25	66.1	66.1	66.1	96	64.9	0	0	---	0.01	29.812 
22:30	66.1	66.1	66.1	96	64.9	0	0	---	0.05	29.802 
22:35	66.1	66.1	66.1	96	64.9	0	2	135	0.08	29.802 
22:40	66.1	66.1	66.1	96	64.9	0	1	135	0.01	29.802 
22:45	66.1	66.1	66.1	96	64.9	0	0	---	0.05	29.793 
22:50	66.1	66.1	66.1	96	64.9	0	2	135	0.15	29.793 
22:55	66.1	66.1	66.1	96	64.9	0	1	135	0.06	29.793 
23:00	66.0	66.0	66.0	96	64.8	0	0	---	0.10	29.790 
23:05	66.0	66.0	66.0	96	64.8	2	4	90	0.25	29.790 
23:10	66.0	66.0	66.0	96	64.8	0	2	90	0.12	29.790 
23:15	65.8	65.8	65.8	97	64.9	0	1	90	0.10	29.789 
23:20	65.8	65.8	65.8	97	64.9	1	2	90	0.05	29.789 
23:25	65.8	65.8	65.8	97	64.9	1	2	90	0.04	29.789 
23:30	65.3	65.3	65.3	97	64.4	0	2	90	0.01	29.775 
23:35	65.0	65.0	65.0	96	63.8	0	1	90	0.03	29.775 
23:40	64.3	64.3	64.3	96	63.1	1	2	90	0.01	29.775 
23:45	64.5	64.5	64.5	96	63.3	1	3	90	0.00	29.772 
23:50	64.7	64.7	64.7	96	63.5	0	1	90	0.00	29.772 
23:55	65.0	65.0	65.0	97	64.1	0	1	90	0.01	29.772 

CoCoRaHS
IN-AL-39
A2 Web Hosting
Creative Commons License
GoDaddy
Look for:

loaded 2017-10-18 22:02:38 • last modified 2010-11-18 10:43:29
Privacy PolicyDisclaimer
• wx.awcolley.com is powered by PmWiki v.2002016 •
• all content (unless otherwise noted) © 2017 A W Colley